Time;durP1;ratioP1;P1;durP2;ratioP2;P2;SDS_P1;SDS_P2;PMS_P1;PMS_P2;Temp;Humidity;BMP_temperature;BMP_pressure;BME280_temperature;BME280_humidity;BME280_pressure;Samples;Min_cycle;Max_cycle;Signal;HPM_P1;HPM_P2
2022/04/11 00:00:39;;;;;;;11.02;3.58;;;8.50;79.70;;;;;;6181332;23;20121;-93
2022/04/11 00:03:05;;;;;;;10.65;3.63;;;8.50;80.00;;;;;;6144042;23;20001;-91
2022/04/11 00:05:31;;;;;;;12.70;4.03;;;8.50;80.20;;;;;;6134360;23;20016;-92
2022/04/11 00:07:56;;;;;;;9.95;3.38;;;8.50;80.40;;;;;;6142079;23;20041;-91
2022/04/11 00:10:22;;;;;;;10.13;3.38;;;8.50;80.50;;;;;;6134664;23;20009;-92
2022/04/11 00:12:47;;;;;;;8.77;3.83;;;8.60;80.70;;;;;;6159743;23;20088;-93
2022/04/11 00:15:13;;;;;;;7.60;3.38;;;8.60;80.70;;;;;;6171380;23;20005;-93
2022/04/11 00:17:39;;;;;;;6.65;3.20;;;8.70;80.80;;;;;;6163359;23;20002;-93
2022/04/11 00:20:06;;;;;;;7.55;3.50;;;8.80;80.70;;;;;;6161923;23;20006;-92
2022/04/11 00:22:36;;;;;;;7.57;3.70;;;8.80;80.80;;;;;;6164869;23;20010;-93
2022/04/11 00:25:03;;;;;;;10.75;3.47;;;8.90;80.60;;;;;;6163631;23;19997;-92
2022/04/11 00:27:29;;;;;;;5.43;2.97;;;8.90;80.40;;;;;;6162925;23;20150;-94
2022/04/11 00:29:54;;;;;;;5.90;2.95;;;9.00;80.40;;;;;;6172665;23;20033;-93
2022/04/11 00:32:20;;;;;;;10.55;3.22;;;9.00;80.40;;;;;;6170483;23;19997;-93
2022/04/11 00:34:46;;;;;;;7.15;3.10;;;9.00;80.40;;;;;;6162766;23;19998;-93
2022/04/11 00:37:12;;;;;;;7.43;3.20;;;8.90;80.30;;;;;;6166933;23;20065;-92
2022/04/11 00:39:37;;;;;;;5.93;2.92;;;8.90;80.50;;;;;;6171429;23;20086;-92
2022/04/11 00:42:10;;;;;;;6.88;2.75;;;8.80;80.40;;;;;;6162624;23;20072;-94
2022/04/11 00:44:36;;;;;;;5.35;2.88;;;8.80;80.50;;;;;;6161112;23;20045;-92
2022/04/11 00:47:02;;;;;;;10.05;4.65;;;8.80;80.70;;;;;;6174564;23;20004;-91
2022/04/11 00:49:30;;;;;;;8.38;2.80;;;8.80;80.80;;;;;;6170705;23;20077;-92
2022/04/11 00:51:57;;;;;;;6.32;3.08;;;8.70;80.80;;;;;;6137325;23;20393;-90
2022/04/11 00:54:24;;;;;;;7.43;2.60;;;8.70;81.00;;;;;;6135855;23;20489;-91
2022/04/11 00:56:50;;;;;;;8.48;2.80;;;8.60;81.10;;;;;;6146439;23;20002;-91
2022/04/11 00:59:17;;;;;;;7.00;2.53;;;8.60;81.30;;;;;;6146450;23;20013;-90
2022/04/11 01:01:43;;;;;;;4.95;2.28;;;8.60;81.40;;;;;;6179137;23;20006;-91
2022/04/11 01:04:23;;;;;;;6.53;2.90;;;8.60;81.50;;;;;;6148224;23;20016;-91
2022/04/11 01:06:50;;;;;;;6.30;2.40;;;8.60;81.50;;;;;;6145735;23;20021;-91
2022/04/11 01:09:16;;;;;;;9.02;2.58;;;8.50;81.40;;;;;;6171140;23;20008;-91
2022/04/11 01:11:43;;;;;;;9.15;2.95;;;8.40;81.30;;;;;;6171196;23;19998;-91
2022/04/11 01:14:08;;;;;;;10.10;3.58;;;8.40;82.00;;;;;;6171992;23;20112;-91
2022/04/11 01:16:34;;;;;;;7.15;3.05;;;8.40;81.30;;;;;;6147602;23;20479;-92
2022/04/11 01:19:05;;;;;;;5.32;2.55;;;8.30;81.40;;;;;;6174067;23;20303;-93
2022/04/11 01:21:31;;;;;;;5.43;2.03;;;8.30;81.70;;;;;;6172451;23;20004;-92
2022/04/11 01:23:58;;;;;;;7.38;2.53;;;8.20;81.90;;;;;;6177085;23;20053;-92
2022/04/11 01:26:26;;;;;;;4.78;2.28;;;8.10;82.80;;;;;;6180884;23;20006;-91
2022/04/11 01:28:53;;;;;;;9.18;2.40;;;8.10;82.30;;;;;;6153623;23;20009;-91
2022/04/11 01:31:19;;;;;;;7.40;1.98;;;8.10;82.50;;;;;;6148006;23;20010;-91
2022/04/11 01:33:45;;;;;;;5.53;2.47;;;8.00;82.50;;;;;;6174848;23;20034;-92
2022/04/11 01:36:12;;;;;;;3.90;1.95;;;8.00;82.80;;;;;;6174515;23;20013;-91
2022/04/11 01:38:38;;;;;;;7.43;2.50;;;7.90;83.00;;;;;;6173486;23;20023;-92
2022/04/11 01:41:04;;;;;;;4.53;2.10;;;7.80;82.90;;;;;;6145157;23;20014;-92
2022/04/11 01:43:30;;;;;;;4.00;2.05;;;7.80;83.00;;;;;;6168906;23;20066;-92
2022/04/11 01:45:56;;;;;;;7.15;2.30;;;7.70;83.00;;;;;;6143439;23;20028;-92
2022/04/11 01:48:21;;;;;;;6.18;2.45;;;7.70;82.90;;;;;;6170206;23;19993;-92
2022/04/11 01:50:47;;;;;;;5.65;2.17;;;7.70;82.80;;;;;;6142235;23;20021;-93
2022/04/11 01:53:18;;;;;;;5.75;2.10;;;7.60;82.70;;;;;;6169096;23;20040;-92
2022/04/11 01:55:44;;;;;;;;;;;7.60;82.30;;;;;;6142642;23;20007;-90
2022/04/11 01:58:11;;;;;;;10.35;2.47;;;7.60;82.00;;;;;;6167373;23;19906;-92
2022/04/11 02:00:38;;;;;;;7.57;2.25;;;7.50;81.90;;;;;;6142679;23;20013;-93
2022/04/11 02:03:05;;;;;;;5.22;2.10;;;7.50;81.90;;;;;;6143317;23;20002;-93
2022/04/11 02:05:32;;;;;;;3.53;1.83;;;7.50;82.00;;;;;;6142523;23;20057;-91
2022/04/11 02:07:58;;;;;;;3.38;1.70;;;7.50;82.30;;;;;;6167958;23;20005;-90
2022/04/11 02:10:24;;;;;;;6.57;2.05;;;7.40;82.20;;;;;;6141268;23;20422;-91
2022/04/11 02:12:51;;;;;;;4.20;1.77;;;7.40;82.20;;;;;;6167420;23;20002;-91
2022/04/11 02:15:17;;;;;;;8.68;2.30;;;7.40;82.20;;;;;;6140515;23;20009;-91
2022/04/11 02:17:46;;;;;;;7.85;2.10;;;7.30;82.30;;;;;;6173897;23;19989;-89
2022/04/11 02:20:12;;;;;;;5.30;2.25;;;7.30;82.60;;;;;;6170216;23;19998;-91
2022/04/11 02:22:48;;;;;;;5.20;2.10;;;7.30;82.60;;;;;;6174374;23;20042;-92
2022/04/11 02:25:15;;;;;;;4.38;2.65;;;7.30;82.40;;;;;;6167880;23;20002;-91
2022/04/11 02:27:42;;;;;;;3.55;1.70;;;7.20;82.10;;;;;;6166824;23;20075;-90
2022/04/11 02:30:09;;;;;;;6.20;1.88;;;7.20;82.30;;;;;;6139651;23;20001;-91
2022/04/11 02:32:35;;;;;;;5.45;1.55;;;7.20;82.00;;;;;;6164401;23;20088;-91
2022/04/11 02:35:01;;;;;;;4.57;1.77;;;7.20;82.10;;;;;;6165875;23;19997;-90
2022/04/11 02:37:26;;;;;;;3.67;1.50;;;7.20;81.70;;;;;;6141448;23;20049;-91
2022/04/11 02:39:52;;;;;;;4.13;1.33;;;7.20;81.80;;;;;;6166629;23;20025;-91
2022/04/11 02:42:24;;;;;;;4.68;1.50;;;7.20;81.20;;;;;;6141190;23;20065;-91
2022/04/11 02:44:51;;;;;;;3.50;1.40;;;7.20;80.80;;;;;;6141734;23;20117;-91
2022/04/11 02:47:18;;;;;;;3.25;1.45;;;7.20;80.60;;;;;;6171176;23;20333;-90
2022/04/11 02:49:44;;;;;;;5.88;1.48;;;7.20;80.10;;;;;;6149601;23;20006;-91
2022/04/11 02:52:10;;;;;;;5.43;1.50;;;7.20;80.40;;;;;;6150534;23;20001;-91
2022/04/11 02:54:39;;;;;;;6.05;2.67;;;7.10;80.40;;;;;;6167662;23;20005;-91
2022/04/11 02:57:05;;;;;;;5.10;2.47;;;7.20;80.30;;;;;;6161983;23;20029;-92
2022/04/11 02:59:32;;;;;;;8.55;3.28;;;7.10;80.60;;;;;;6162520;23;20010;-92
2022/04/11 03:01:58;;;;;;;4.85;2.63;;;7.10;81.20;;;;;;6143509;23;20009;-90
2022/04/11 03:04:24;;;;;;;7.18;1.80;;;7.10;81.70;;;;;;6144055;23;20425;-91
2022/04/11 03:06:50;;;;;;;4.68;1.90;;;7.10;81.90;;;;;;6143220;23;20040;-91
2022/04/11 03:09:16;;;;;;;2.80;1.50;;;7.00;81.90;;;;;;6143220;23;20059;-91
2022/04/11 03:11:41;;;;;;;4.78;1.70;;;7.00;81.60;;;;;;6164980;23;20450;-91
2022/04/11 03:14:07;;;;;;;4.43;1.65;;;7.00;81.10;;;;;;6137183;23;20002;-91
2022/04/11 03:16:34;;;;;;;5.32;2.20;;;7.00;80.90;;;;;;6161640;23;20482;-91
2022/04/11 03:19:00;;;;;;;8.50;2.05;;;7.00;80.90;;;;;;6135173;23;20005;-91
2022/04/11 03:21:26;;;;;;;3.15;1.70;;;7.00;80.20;;;;;;6166279;23;20037;-91
2022/04/11 03:23:51;;;;;;;3.83;2.10;;;7.00;79.90;;;;;;6165805;23;20005;-90
2022/04/11 03:26:17;;;;;;;5.85;2.58;;;7.00;79.90;;;;;;6166622;23;20023;-91
2022/04/11 03:28:43;;;;;;;8.50;3.28;;;7.00;79.80;;;;;;6174369;23;20004;-90
2022/04/11 03:31:09;;;;;;;9.82;2.05;;;7.00;79.50;;;;;;6170817;23;19997;-91
2022/04/11 03:33:34;;;;;;;3.78;2.13;;;7.00;79.50;;;;;;6179244;23;20017;-91
2022/04/11 03:36:00;;;;;;;5.88;2.40;;;6.90;79.40;;;;;;6156427;23;20040;-91
2022/04/11 03:38:26;;;;;;;3.15;1.90;;;6.90;79.70;;;;;;6172367;22;20135;-91
2022/04/11 03:40:52;;;;;;;9.88;2.00;;;6.90;79.90;;;;;;6139068;23;20009;-91
2022/04/11 03:43:17;;;;;;;8.00;2.35;;;6.90;80.00;;;;;;6160929;23;19997;-92
2022/04/11 03:45:43;;;;;;;10.13;3.95;;;6.90;80.20;;;;;;6161633;23;20069;-91
2022/04/11 03:48:09;;;;;;;7.97;2.40;;;6.90;80.30;;;;;;6144733;23;20001;-92
2022/04/11 03:50:34;;;;;;;8.60;3.53;;;6.90;80.40;;;;;;6162270;23;20017;-91
2022/04/11 03:53:00;;;;;;;8.52;2.80;;;6.80;80.50;;;;;;6132752;23;20010;-91
2022/04/11 03:55:26;;;;;;;8.38;2.88;;;6.80;80.80;;;;;;6129870;23;20010;-91
2022/04/11 03:57:51;;;;;;;7.57;2.67;;;6.80;81.10;;;;;;6165424;23;20002;-92
2022/04/11 04:00:17;;;;;;;5.97;2.50;;;6.90;81.40;;;;;;6138289;23;20013;-91
2022/04/11 04:02:44;;;;;;;6.90;2.28;;;6.90;81.70;;;;;;6136235;23;20453;-91
2022/04/11 04:05:10;;;;;;;6.18;2.42;;;6.90;82.00;;;;;;6135578;23;20005;-92
2022/04/11 04:07:37;;;;;;;6.47;2.80;;;6.90;82.20;;;;;;6144839;23;20024;-90
2022/04/11 04:10:08;;;;;;;6.55;3.08;;;6.80;82.60;;;;;;6134944;23;20119;-92
2022/04/11 04:12:33;;;;;;;9.65;4.28;;;6.80;82.80;;;;;;6132626;23;20009;-91
2022/04/11 04:15:00;;;;;;;6.68;2.65;;;6.80;83.00;;;;;;6158011;23;20093;-91
2022/04/11 04:17:26;;;;;;;9.45;2.88;;;6.70;83.10;;;;;;6158422;23;20048;-91
2022/04/11 04:19:51;;;;;;;6.07;3.17;;;6.70;83.30;;;;;;6158400;23;20418;-91
2022/04/11 04:22:17;;;;;;;10.35;2.85;;;6.70;83.60;;;;;;6158706;23;20057;-91
2022/04/11 04:24:43;;;;;;;6.03;2.55;;;6.70;84.00;;;;;;6159619;23;20314;-91
2022/04/11 04:27:09;;;;;;;6.22;3.00;;;6.70;84.10;;;;;;6133888;23;20707;-92
2022/04/11 04:29:35;;;;;;;7.57;3.22;;;6.60;84.30;;;;;;6134716;23;20005;-92
2022/04/11 04:32:01;;;;;;;8.27;2.90;;;6.60;84.60;;;;;;6162193;23;20017;-92
2022/04/11 04:34:29;;;;;;;11.10;3.00;;;6.60;84.90;;;;;;6136221;23;20001;-91
2022/04/11 04:36:55;;;;;;;9.18;3.50;;;6.50;85.10;;;;;;6163557;23;20009;-91
2022/04/11 04:39:20;;;;;;;6.57;3.05;;;6.50;85.40;;;;;;6139380;23;20024;-91
2022/04/11 04:41:46;;;;;;;5.47;3.00;;;6.40;85.60;;;;;;6134587;23;20033;-91
2022/04/11 04:44:12;;;;;;;7.30;3.30;;;6.40;86.00;;;;;;6135004;23;20013;-92
2022/04/11 04:46:38;;;;;;;12.77;3.72;;;6.40;86.30;;;;;;6158264;23;20018;-90
2022/04/11 04:49:05;;;;;;;11.30;4.70;;;6.30;86.60;;;;;;6160982;23;19997;-91
2022/04/11 04:51:30;;;;;;;10.68;3.38;;;6.30;86.90;;;;;;6163645;23;20005;-91
2022/04/11 04:53:56;;;;;;;7.85;3.42;;;6.30;87.10;;;;;;6162462;23;20080;-91
2022/04/11 04:56:22;;;;;;;9.32;3.40;;;6.30;87.40;;;;;;6162247;23;20084;-92
2022/04/11 04:58:49;;;;;;;15.27;3.92;;;6.30;87.60;;;;;;6136591;23;20118;-92
2022/04/11 05:01:15;;;;;;;7.65;3.75;;;6.20;87.90;;;;;;6161345;23;20406;-91
2022/04/11 05:03:41;;;;;;;13.20;3.63;;;6.20;88.20;;;;;;6161609;23;20004;-91
2022/04/11 05:06:07;;;;;;;10.70;3.95;;;6.20;88.40;;;;;;6159787;23;20033;-91
2022/04/11 05:08:33;;;;;;;10.63;4.30;;;6.20;88.70;;;;;;6161235;23;20010;-92
2022/04/11 05:11:00;;;;;;;7.20;3.33;;;6.20;89.00;;;;;;6139393;23;20005;-92
2022/04/11 05:13:26;;;;;;;14.93;3.65;;;6.10;89.30;;;;;;6166032;23;20481;-91
2022/04/11 05:15:52;;;;;;;9.68;4.25;;;6.10;89.60;;;;;;6136734;23;20329;-92
2022/04/11 05:18:17;;;;;;;8.15;3.10;;;6.10;89.80;;;;;;6146690;23;19990;-93
2022/04/11 05:20:43;;;;;;;13.30;3.80;;;6.10;90.00;;;;;;6172083;23;20001;-91
2022/04/11 05:23:09;;;;;;;14.70;4.43;;;6.00;90.10;;;;;;6139297;23;20119;-91
2022/04/11 05:25:35;;;;;;;14.27;4.15;;;6.00;90.20;;;;;;6141138;23;20163;-92
2022/04/11 05:28:01;;;;;;;7.93;4.13;;;6.00;90.30;;;;;;6166255;23;20362;-91
2022/04/11 05:30:27;;;;;;;13.60;5.63;;;5.90;90.50;;;;;;6161839;23;20005;-91
2022/04/11 05:32:53;;;;;;;15.23;4.63;;;5.90;90.60;;;;;;6161886;23;20017;-91
2022/04/11 05:35:19;;;;;;;14.98;4.80;;;5.90;90.70;;;;;;6165361;23;20053;-93
2022/04/11 05:37:46;;;;;;;9.98;4.22;;;5.90;90.90;;;;;;6170642;23;20020;-92
2022/04/11 05:40:12;;;;;;;11.27;4.60;;;5.90;90.90;;;;;;6152713;23;20002;-93
2022/04/11 05:42:38;;;;;;;9.85;4.15;;;5.90;91.00;;;;;;6145434;23;20065;-93
2022/04/11 05:45:05;;;;;;;10.45;4.55;;;5.90;91.10;;;;;;6162931;23;19998;-93
2022/04/11 05:47:31;;;;;;;13.25;4.70;;;5.90;91.20;;;;;;6161462;23;20052;-93
2022/04/11 05:49:57;;;;;;;8.23;4.15;;;5.90;91.30;;;;;;6161879;23;20422;-92
2022/04/11 05:52:22;;;;;;;10.13;4.47;;;5.90;91.40;;;;;;6165196;23;20040;-92
2022/04/11 05:54:48;;;;;;;14.93;5.72;;;5.90;91.40;;;;;;6144003;23;20020;-92
2022/04/11 05:57:15;;;;;;;11.48;4.57;;;5.90;91.50;;;;;;6160949;23;20027;-90
2022/04/11 05:59:44;;;;;;;10.38;4.40;;;5.90;91.60;;;;;;6162168;23;20013;-94
2022/04/11 06:02:10;;;;;;;15.65;5.38;;;5.90;91.60;;;;;;6138415;23;19997;-93
2022/04/11 06:04:37;;;;;;;12.82;5.20;;;5.90;91.70;;;;;;6161161;23;20009;-93
2022/04/11 06:07:04;;;;;;;8.48;5.00;;;5.90;91.80;;;;;;6161939;23;20097;-92
2022/04/11 06:09:30;;;;;;;10.77;4.50;;;5.90;91.90;;;;;;6132199;23;20009;-93
2022/04/11 06:11:57;;;;;;;8.20;3.97;;;5.90;91.90;;;;;;6132861;23;20031;-93
2022/04/11 06:14:22;;;;;;;13.07;5.53;;;6.00;92.00;;;;;;6173126;23;20001;-91
2022/04/11 06:16:48;;;;;;;9.45;5.45;;;6.00;92.00;;;;;;6145916;23;20012;-93
2022/04/11 06:19:14;;;;;;;12.07;4.60;;;6.00;92.10;;;;;;6142299;23;20005;-93
2022/04/11 06:21:40;;;;;;;10.88;5.40;;;6.10;92.10;;;;;;6162970;23;20021;-92
2022/04/11 06:24:07;;;;;;;9.45;4.60;;;6.10;92.10;;;;;;6134544;23;20337;-93
2022/04/11 06:26:32;;;;;;;8.48;5.07;;;6.10;92.20;;;;;;6139060;23;20017;-92
2022/04/11 06:28:58;;;;;;;8.85;4.75;;;6.10;92.20;;;;;;6166091;23;19997;-93
2022/04/11 06:31:24;;;;;;;10.20;5.60;;;6.20;92.30;;;;;;6139342;23;20010;-94
2022/04/11 06:33:50;;;;;;;12.65;4.97;;;6.20;92.30;;;;;;6169465;23;20029;-92
2022/04/11 06:36:16;;;;;;;12.23;4.93;;;6.20;92.30;;;;;;6171038;23;20012;-92
2022/04/11 06:38:41;;;;;;;15.52;5.10;;;6.30;92.30;;;;;;6148435;23;19997;-93
2022/04/11 06:41:07;;;;;;;11.98;4.80;;;6.30;92.30;;;;;;6153153;23;20065;-93
2022/04/11 06:43:33;;;;;;;11.95;5.05;;;6.40;92.30;;;;;;6151967;23;20009;-93
2022/04/11 06:45:59;;;;;;;11.45;5.45;;;6.40;92.20;;;;;;6144252;23;20019;-92
2022/04/11 06:48:25;;;;;;;11.98;5.15;;;6.50;92.20;;;;;;6180988;23;20036;-92
2022/04/11 06:50:52;;;;;;;10.30;4.53;;;6.50;92.10;;;;;;6181118;23;20028;-92
2022/04/11 06:53:19;;;;;;;13.32;5.20;;;6.60;92.10;;;;;;6181429;23;20012;-92
2022/04/11 06:55:47;;;;;;;13.27;5.05;;;6.60;92.20;;;;;;6176949;23;20006;-92
2022/04/11 06:58:14;;;;;;;11.45;4.82;;;6.70;92.20;;;;;;6168082;23;20009;-93
2022/04/11 07:00:40;;;;;;;12.43;5.10;;;6.60;92.20;;;;;;6164464;23;20005;-92
2022/04/11 07:03:06;;;;;;;11.93;5.53;;;6.70;92.30;;;;;;6131033;23;20458;-93
2022/04/11 07:05:31;;;;;;;12.95;5.28;;;6.70;92.30;;;;;;6131637;23;20005;-92
2022/04/11 07:07:57;;;;;;;10.38;5.10;;;6.70;92.30;;;;;;6133040;23;20017;-92
2022/04/11 07:10:23;;;;;;;13.75;5.40;;;6.70;92.30;;;;;;6157741;23;20002;-92
2022/04/11 07:12:49;;;;;;;15.13;5.53;;;6.80;92.30;;;;;;6133792;23;20062;-93
2022/04/11 07:15:18;;;;;;;15.02;5.35;;;6.80;92.30;;;;;;6138207;23;20036;-93
2022/04/11 07:17:44;;;;;;;15.13;5.90;;;6.80;92.40;;;;;;6137576;23;20012;-92
2022/04/11 07:20:10;;;;;;;12.10;5.20;;;6.90;92.40;;;;;;6141527;23;20003;-92
2022/04/11 07:22:36;;;;;;;14.73;5.72;;;6.90;92.40;;;;;;6137786;23;20010;-92
2022/04/11 07:25:03;;;;;;;14.88;5.80;;;6.90;92.30;;;;;;6136970;23;20008;-92
2022/04/11 07:27:28;;;;;;;15.93;6.35;;;7.00;92.10;;;;;;6158372;23;20456;-92
2022/04/11 07:29:54;;;;;;;12.68;5.30;;;7.00;92.00;;;;;;6160223;23;20076;-92
2022/04/11 07:32:20;;;;;;;11.60;5.47;;;7.10;91.90;;;;;;6132947;23;20026;-93
2022/04/11 07:34:45;;;;;;;14.82;5.63;;;7.10;91.90;;;;;;6158953;23;20399;-93
2022/04/11 07:37:11;;;;;;;14.45;5.90;;;7.20;91.80;;;;;;6145155;23;20017;-92
2022/04/11 07:39:37;;;;;;;18.15;5.35;;;7.20;91.80;;;;;;6164084;23;20002;-92
2022/04/11 07:42:04;;;;;;;20.15;7.25;;;7.30;91.80;;;;;;6131700;23;20350;-93
2022/04/11 07:44:29;;;;;;;12.30;7.05;;;7.30;91.80;;;;;;6131737;23;20467;-93
2022/04/11 07:46:55;;;;;;;13.30;6.50;;;7.40;91.70;;;;;;6130418;23;20085;-93
2022/04/11 07:49:21;;;;;;;15.18;6.55;;;7.50;91.80;;;;;;6156618;23;20001;-94
2022/04/11 07:51:47;;;;;;;13.80;6.25;;;7.50;91.60;;;;;;6156456;23;20016;-94
2022/04/11 07:54:19;;;;;;;12.45;6.00;;;7.60;91.60;;;;;;6131886;23;20005;-93
2022/04/11 07:56:44;;;;;;;15.25;7.15;;;7.70;91.70;;;;;;6134108;23;20101;-93
2022/04/11 07:59:10;;;;;;;14.75;6.57;;;7.80;91.70;;;;;;6136465;23;20001;-92
2022/04/11 08:01:36;;;;;;;11.75;5.50;;;7.90;91.70;;;;;;6136984;23;20005;-93
2022/04/11 08:04:01;;;;;;;17.60;6.53;;;8.00;91.60;;;;;;6136818;23;20006;-93
2022/04/11 08:06:27;;;;;;;12.98;6.47;;;8.10;91.50;;;;;;6135264;23;20017;-92
2022/04/11 08:08:53;;;;;;;12.70;6.53;;;8.10;91.30;;;;;;6162985;23;19997;-92
2022/04/11 08:11:19;;;;;;;13.20;6.53;;;8.20;91.30;;;;;;6137530;23;20412;-94
2022/04/11 08:13:45;;;;;;;19.02;6.40;;;8.30;91.10;;;;;;6133974;23;20002;-92
2022/04/11 08:16:12;;;;;;;12.90;6.85;;;8.30;91.00;;;;;;6137499;23;20012;-94
2022/04/11 08:18:38;;;;;;;13.90;6.38;;;8.50;91.00;;;;;;6139630;23;20002;-93
2022/04/11 08:21:04;;;;;;;15.77;6.68;;;8.60;90.90;;;;;;6133397;23;20437;-94
2022/04/11 08:23:30;;;;;;;16.30;6.72;;;8.70;90.70;;;;;;6134736;23;20049;-93
2022/04/11 08:25:56;;;;;;;14.20;6.10;;;8.70;90.40;;;;;;6133049;23;20016;-92
2022/04/11 08:28:23;;;;;;;16.23;6.88;;;8.80;90.40;;;;;;6134233;23;20009;-93
2022/04/11 08:30:49;;;;;;;11.88;6.15;;;8.80;90.30;;;;;;6135348;23;20097;-93
2022/04/11 08:33:15;;;;;;;14.93;7.05;;;8.90;90.30;;;;;;6135660;23;20036;-94
2022/04/11 08:35:41;;;;;;;16.02;6.72;;;9.00;90.20;;;;;;6132797;23;20049;-92
2022/04/11 08:38:07;;;;;;;14.95;7.03;;;9.00;90.00;;;;;;6136435;23;20021;-92
2022/04/11 08:40:33;;;;;;;15.68;6.90;;;9.10;90.00;;;;;;6137986;23;20013;-92
2022/04/11 08:42:59;;;;;;;14.90;7.85;;;9.20;90.00;;;;;;6121203;23;20100;-94
2022/04/11 08:45:27;;;;;;;17.10;8.15;;;9.20;89.90;;;;;;6139111;23;20020;-94
2022/04/11 08:47:56;;;;;;;17.95;7.82;;;9.30;89.60;;;;;;6135877;23;20012;-92
2022/04/11 08:50:26;;;;;;;16.27;7.20;;;9.40;90.00;;;;;;6134070;23;20088;-92
2022/04/11 08:52:54;;;;;;;19.33;8.10;;;9.40;89.30;;;;;;6133505;23;20001;-93
2022/04/11 08:55:23;;;;;;;14.35;8.00;;;9.40;89.00;;;;;;6133601;23;20013;-94
2022/04/11 08:57:49;;;;;;;18.23;7.45;;;9.50;89.00;;;;;;6162517;23;20068;-95
2022/04/11 09:00:20;;;;;;;18.52;7.38;;;9.50;88.60;;;;;;6134887;23;20005;-95
2022/04/11 09:02:47;;;;;;;13.98;7.15;;;9.60;88.60;;;;;;6138452;23;20009;-94
2022/04/11 09:05:23;;;;;;;13.23;7.00;;;9.60;88.60;;;;;;6144471;23;20025;-95
2022/04/11 09:07:57;;;;;;;14.95;7.25;;;9.60;89.20;;;;;;6139921;23;20009;-95
2022/04/11 09:10:27;;;;;;;16.38;7.40;;;9.60;88.30;;;;;;6137421;23;20004;-94
2022/04/11 09:13:00;;;;;;;13.13;6.95;;;9.60;88.30;;;;;;6139240;23;20136;-95
2022/04/11 09:15:29;;;;;;;17.23;7.20;;;9.70;88.40;;;;;;6141706;23;20006;-93
2022/04/11 09:17:56;;;;;;;14.73;6.40;;;9.70;88.20;;;;;;6145161;23;20006;-93
2022/04/11 09:20:29;;;;;;;14.73;7.28;;;9.80;88.20;;;;;;6146514;23;20001;-94
2022/04/11 09:22:56;;;;;;;15.38;7.22;;;9.80;88.10;;;;;;6161617;23;20005;-94
2022/04/11 09:25:32;;;;;;;16.60;7.65;;;9.90;88.00;;;;;;6135319;23;20012;-94
2022/04/11 09:28:08;;;;;;;13.93;7.40;;;10.00;87.80;;;;;;6135851;23;20014;-94
2022/04/11 09:30:35;;;;;;;17.50;7.45;;;10.10;87.50;;;;;;6134798;23;20009;-94
2022/04/11 09:33:04;;;;;;;15.40;7.03;;;10.20;87.20;;;;;;6161848;23;19997;-95
2022/04/11 09:35:33;;;;;;;19.42;7.57;;;10.30;86.60;;;;;;6166624;23;20001;-93
2022/04/11 09:38:09;;;;;;;17.60;7.65;;;10.30;85.80;;;;;;6140101;23;20013;-95
2022/04/11 09:40:40;;;;;;;12.18;5.85;;;10.40;85.40;;;;;;6135419;23;20100;-94
2022/04/11 09:43:06;;;;;;;;;;;10.50;85.10;;;;;;6135136;23;20100;-94
2022/04/11 09:45:32;;;;;;;13.35;5.45;;;10.50;84.50;;;;;;6138069;23;19908;-94
2022/04/11 09:48:05;;;;;;;15.10;6.00;;;10.60;83.70;;;;;;6136214;23;20005;-92
2022/04/11 09:50:32;;;;;;;12.35;5.13;;;10.60;82.90;;;;;;6133489;23;20001;-92
2022/04/11 09:53:11;;;;;;;10.20;5.95;;;10.60;82.80;;;;;;6135396;23;20005;-91
2022/04/11 09:56:05;;;;;;;11.55;5.95;;;10.70;82.80;;;;;;6136063;23;20010;-94
2022/04/11 09:58:34;;;;;;;10.02;5.00;;;10.70;82.60;;;;;;6138562;23;20009;-93
2022/04/11 10:01:07;;;;;;;9.52;4.93;;;10.80;82.40;;;;;;6138311;23;20006;-93
2022/04/11 10:03:33;;;;;;;11.38;5.38;;;10.90;82.10;;;;;;6141846;23;20071;-92
2022/04/11 10:06:03;;;;;;;10.07;5.65;;;10.90;81.50;;;;;;6140019;23;20009;-94
2022/04/11 10:08:53;;;;;;;14.05;4.85;;;11.00;81.30;;;;;;6141211;23;20006;-94
2022/04/11 10:11:31;;;;;;;9.63;5.07;;;11.10;81.00;;;;;;6141945;23;20021;-93
2022/04/11 10:14:01;;;;;;;8.40;4.85;;;11.30;80.30;;;;;;6138435;23;20013;-94
2022/04/11 10:16:27;;;;;;;10.00;5.25;;;11.40;79.60;;;;;;6132569;23;20465;-94
2022/04/11 10:19:03;;;;;;;10.00;5.18;;;11.60;79.30;;;;;;6132757;23;20081;-91
2022/04/11 10:21:30;;;;;;;9.43;5.30;;;11.80;78.50;;;;;;6132556;23;20429;-92
2022/04/11 10:24:06;;;;;;;10.02;4.93;;;12.00;77.90;;;;;;6132976;23;20017;-93
2022/04/11 10:26:53;;;;;;;11.00;5.50;;;12.20;77.30;;;;;;6133768;23;20072;-93
2022/04/11 10:29:49;;;;;;;10.50;5.57;;;12.30;76.40;;;;;;6133233;23;20005;-91
2022/04/11 10:32:29;;;;;;;11.52;6.10;;;12.50;75.80;;;;;;6129665;23;20013;-93
2022/04/11 10:35:08;;;;;;;12.57;5.35;;;12.60;75.50;;;;;;6137552;23;20078;-93
2022/04/11 10:37:40;;;;;;;12.20;5.72;;;12.60;75.00;;;;;;6133303;23;20088;-92
2022/04/11 10:40:29;;;;;;;10.98;5.72;;;12.60;74.50;;;;;;6134268;23;20017;-94
2022/04/11 10:43:00;;;;;;;9.30;4.97;;;12.70;74.80;;;;;;6116512;23;20029;-94
2022/04/11 10:45:31;;;;;;;10.38;4.63;;;12.80;74.40;;;;;;6138547;23;20009;-95
2022/04/11 10:47:57;;;;;;;11.65;5.43;;;12.90;74.00;;;;;;6148228;23;20037;-93
2022/04/11 10:50:25;;;;;;;12.68;6.60;;;13.00;73.20;;;;;;6154578;23;20009;-93
2022/04/11 10:52:53;;;;;;;10.35;5.47;;;13.10;73.10;;;;;;6140768;23;20009;-93
2022/04/11 10:55:25;;;;;;;10.35;5.05;;;13.30;73.30;;;;;;6133112;23;20116;-92
2022/04/11 10:57:57;;;;;;;11.95;4.88;;;13.50;73.00;;;;;;6133551;23;20013;-93
2022/04/11 11:00:31;;;;;;;9.18;5.45;;;13.70;72.20;;;;;;6137574;23;20008;-93
2022/04/11 11:02:59;;;;;;;8.60;5.47;;;13.80;70.90;;;;;;6136940;23;20008;-93
2022/04/11 11:05:26;;;;;;;10.25;5.80;;;13.90;70.80;;;;;;6133272;23;20001;-95
2022/04/11 11:08:07;;;;;;;10.48;4.70;;;14.00;70.60;;;;;;6132511;23;20017;-92
2022/04/11 11:10:41;;;;;;;10.82;5.20;;;14.20;70.10;;;;;;6135082;23;20060;-92
2022/04/11 11:13:29;;;;;;;9.55;5.38;;;14.20;69.00;;;;;;6114457;23;20344;-92
2022/04/11 11:15:56;;;;;;;7.55;4.68;;;14.20;68.80;;;;;;6131671;23;20010;-91
2022/04/11 11:18:22;;;;;;;11.13;4.28;;;14.30;69.00;;;;;;6156866;23;20006;-94
2022/04/11 11:20:52;;;;;;;8.93;4.78;;;14.40;68.60;;;;;;6130808;23;20006;-93
2022/04/11 11:23:26;;;;;;;;;;;14.50;68.40;;;;;;6156794;23;20452;-90
2022/04/11 11:25:53;;;;;;;8.13;4.50;;;14.60;67.50;;;;;;6130212;23;19909;-94
2022/04/11 11:28:19;;;;;;;9.60;4.07;;;14.70;67.40;;;;;;6130708;23;20073;-92
2022/04/11 11:30:45;;;;;;;7.63;4.45;;;14.70;66.70;;;;;;6129710;23;20068;-93
2022/04/11 11:33:17;;;;;;;7.32;4.15;;;14.70;66.40;;;;;;6129498;23;20013;-93
2022/04/11 11:35:51;;;;;;;7.55;3.72;;;14.60;65.80;;;;;;6129965;23;20005;-93
2022/04/11 11:38:28;;;;;;;9.68;4.20;;;14.60;65.80;;;;;;6130491;23;20513;-94
2022/04/11 11:40:55;;;;;;;8.32;3.50;;;14.60;65.50;;;;;;6130762;23;20010;-92
2022/04/11 11:43:22;;;;;;;7.18;3.65;;;14.80;65.40;;;;;;6130599;23;20010;-93
2022/04/11 11:45:49;;;;;;;9.25;3.95;;;15.00;65.50;;;;;;6130675;23;20093;-92
2022/04/11 11:48:33;;;;;;;8.05;2.80;;;15.40;65.40;;;;;;6130435;23;20005;-93
2022/04/11 11:51:01;;;;;;;6.55;3.40;;;15.60;63.90;;;;;;6130029;23;20009;-93
2022/04/11 11:53:51;;;;;;;6.43;3.40;;;15.80;63.00;;;;;;6130473;23;20001;-92
2022/04/11 11:56:17;;;;;;;9.07;3.58;;;15.80;62.50;;;;;;6130821;23;20005;-92
2022/04/11 11:58:46;;;;;;;7.30;3.10;;;15.80;62.10;;;;;;6129166;23;20006;-92
2022/04/11 12:01:14;;;;;;;12.85;4.28;;;15.80;62.40;;;;;;6129694;23;20009;-94
2022/04/11 12:06:31;;;;;;;5.95;3.55;;;15.80;61.80;;;;;;6157177;23;20024;-92
2022/04/11 12:08:58;;;;;;;13.02;3.33;;;15.80;61.60;;;;;;6131152;23;20016;-94
2022/04/11 12:11:26;;;;;;;5.68;2.85;;;15.80;61.50;;;;;;6131858;23;20006;-95
2022/04/11 12:14:05;;;;;;;8.38;3.50;;;15.80;61.30;;;;;;6132305;23;20012;-93
2022/04/11 12:16:37;;;;;;;7.28;3.42;;;15.80;61.20;;;;;;6157235;23;20032;-92
2022/04/11 12:19:05;;;;;;;5.95;3.03;;;15.80;60.80;;;;;;6131596;23;20009;-94
2022/04/11 12:21:39;;;;;;;6.18;2.83;;;15.80;60.10;;;;;;6131187;23;20044;-93
2022/04/11 12:24:08;;;;;;;4.50;2.75;;;15.70;60.20;;;;;;6130445;23;20192;-93
2022/04/11 12:26:38;;;;;;;6.00;3.20;;;15.70;60.10;;;;;;6130371;23;20014;-92
2022/04/11 12:29:15;;;;;;;8.73;3.13;;;15.80;60.20;;;;;;6156488;23;20021;-93
2022/04/11 12:32:01;;;;;;;10.23;4.30;;;15.90;60.40;;;;;;6130406;23;20089;-93
2022/04/11 12:34:35;;;;;;;8.32;4.15;;;16.10;60.20;;;;;;6130608;23;20010;-93
2022/04/11 12:37:05;;;;;;;8.45;4.60;;;16.10;59.90;;;;;;6131149;23;20072;-93
2022/04/11 12:39:47;;;;;;;6.78;3.80;;;16.20;59.80;;;;;;6131157;23;19997;-93
2022/04/11 12:42:24;;;;;;;8.35;3.72;;;16.20;60.60;;;;;;6134387;23;20028;-93
2022/04/11 12:45:14;;;;;;;6.88;3.97;;;16.20;59.80;;;;;;6160181;23;20001;-93
2022/04/11 12:48:03;;;;;;;10.70;4.25;;;16.20;59.90;;;;;;6133234;23;20020;-95
2022/04/11 12:50:30;;;;;;;9.65;4.15;;;16.00;59.50;;;;;;6133174;23;20144;-93
2022/04/11 12:52:56;;;;;;;9.90;5.60;;;15.90;59.60;;;;;;6132445;23;20017;-93
2022/04/11 12:55:26;;;;;;;17.80;10.25;;;15.80;59.90;;;;;;6132613;23;20010;-92
2022/04/11 12:58:07;;;;;;;8.50;5.25;;;15.80;60.40;;;;;;6136416;23;20033;-93